createdAt,value
2022-08-11T00:01:18.599Z,18.76
2022-08-11T00:04:07.395Z,18.74
2022-08-11T00:06:37.814Z,18.72
2022-08-11T00:09:10.753Z,18.70
2022-08-11T00:11:44.369Z,18.68
2022-08-11T00:14:21.572Z,18.68
2022-08-11T00:17:08.666Z,18.67
2022-08-11T00:20:14.208Z,18.65
2022-08-11T00:22:35.127Z,18.61
2022-08-11T00:25:13.029Z,18.79
2022-08-11T00:27:42.023Z,20.74
2022-08-11T00:30:13.229Z,22.43
2022-08-11T00:32:44.319Z,22.00
2022-08-11T00:35:55.474Z,21.19
2022-08-11T00:38:05.233Z,20.58
2022-08-11T00:40:59.930Z,20.22
2022-08-11T00:44:02.508Z,19.95
2022-08-11T00:47:10.005Z,19.72
2022-08-11T00:50:01.530Z,19.55
2022-08-11T00:52:53.664Z,19.40
2022-08-11T00:55:22.040Z,19.28
2022-08-11T00:58:21.921Z,19.19
2022-08-11T01:01:32.466Z,19.09
2022-08-11T01:04:19.336Z,18.97
2022-08-11T01:06:50.181Z,18.89
2022-08-11T01:09:52.240Z,18.81
2022-08-11T01:12:45.428Z,18.74
2022-08-11T01:15:31.832Z,18.68
2022-08-11T01:18:29.979Z,18.63
2022-08-11T01:21:29.079Z,18.57
2022-08-11T01:24:15.582Z,19.10
2022-08-11T01:27:18.771Z,21.59
2022-08-11T01:30:25.106Z,22.65
2022-08-11T01:33:13.762Z,21.58
2022-08-11T01:36:06.796Z,20.83
2022-08-11T01:38:53.904Z,20.35
2022-08-11T01:42:22.259Z,20.02
2022-08-11T01:44:55.967Z,19.71
2022-08-11T01:47:52.901Z,19.52
2022-08-11T01:50:31.326Z,19.32
2022-08-11T01:53:37.617Z,19.14
2022-08-11T01:56:10.987Z,18.96
2022-08-11T01:58:48.730Z,18.82
2022-08-11T02:01:38.159Z,18.68
2022-08-11T02:04:50.601Z,18.53
2022-08-11T02:07:47.546Z,18.38
2022-08-11T02:10:54.736Z,18.23
2022-08-11T02:13:42.127Z,18.08
2022-08-11T02:16:17.750Z,17.98
2022-08-11T02:19:31.125Z,18.45
2022-08-11T02:22:39.484Z,21.44
2022-08-11T02:25:12.755Z,21.85
2022-08-11T02:27:54.342Z,20.84
2022-08-11T02:30:26.302Z,20.10
2022-08-11T02:33:12.983Z,19.62
2022-08-11T02:36:03.998Z,19.26
2022-08-11T02:38:47.117Z,18.98
2022-08-11T02:41:49.215Z,18.75
2022-08-11T02:44:28.306Z,18.53
2022-08-11T02:47:15.437Z,18.36
2022-08-11T02:50:06.378Z,18.19
2022-08-11T02:52:54.072Z,18.04
2022-08-11T02:55:50.863Z,18.53
2022-08-11T02:59:10.343Z,21.29
2022-08-11T03:01:48.477Z,21.86
2022-08-11T03:04:51.607Z,20.85
2022-08-11T03:07:31.548Z,19.99
2022-08-11T03:10:24.297Z,19.54
2022-08-11T03:13:10.698Z,19.21
2022-08-11T03:16:20.756Z,18.96
2022-08-11T03:19:21.183Z,18.72
2022-08-11T03:22:11.372Z,18.52
2022-08-11T03:25:03.508Z,18.33
2022-08-11T03:27:53.288Z,18.14
2022-08-11T03:31:08.874Z,17.97
2022-08-11T03:34:07.455Z,18.96
2022-08-11T03:37:17.291Z,21.71
2022-08-11T03:40:13.748Z,21.61
2022-08-11T03:43:03.734Z,20.49
2022-08-11T03:45:47.987Z,19.77
2022-08-11T03:48:39.812Z,19.33
2022-08-11T03:51:44.813Z,18.97
2022-08-11T03:54:42.929Z,18.67
2022-08-11T03:57:29.430Z,18.45
2022-08-11T04:00:03.551Z,18.22
2022-08-11T04:03:04.895Z,18.02
2022-08-11T04:05:59.080Z,17.86
2022-08-11T04:08:49.166Z,18.59
2022-08-11T04:11:29.528Z,21.30
2022-08-11T04:14:54.019Z,21.92
2022-08-11T04:17:59.878Z,20.60
2022-08-11T04:21:04.453Z,19.74
2022-08-11T04:24:34.894Z,19.20
2022-08-11T04:27:37.234Z,18.79
2022-08-11T04:30:19.367Z,18.48
2022-08-11T04:33:10.858Z,18.22
2022-08-11T04:36:09.933Z,17.97
2022-08-11T04:39:06.268Z,17.74
2022-08-11T04:42:11.715Z,18.43
2022-08-11T04:44:57.911Z,21.40
2022-08-11T04:48:10.631Z,21.67
2022-08-11T04:51:18.848Z,20.42
2022-08-11T04:54:38.115Z,19.61
2022-08-11T04:57:41.616Z,19.12
2022-08-11T05:00:33.342Z,18.83
2022-08-11T05:03:26.604Z,18.62
2022-08-11T05:06:15.667Z,18.47
2022-08-11T05:08:53.775Z,18.34
2022-08-11T05:11:46.014Z,18.90
2022-08-11T05:14:32.726Z,21.62
2022-08-11T05:17:33.665Z,22.27
2022-08-11T05:20:20.884Z,21.20
2022-08-11T05:23:10.667Z,20.48
2022-08-11T05:26:44.597Z,20.03
2022-08-11T05:29:21.765Z,19.71
2022-08-11T05:32:16.461Z,19.52
2022-08-11T05:34:57.041Z,19.38
2022-08-11T05:37:34.411Z,19.28
2022-08-11T05:40:30.647Z,19.19
2022-08-11T05:43:27.594Z,19.10
2022-08-11T05:46:21.686Z,19.03
2022-08-11T05:49:10.844Z,18.97
2022-08-11T05:52:05.901Z,18.90
2022-08-11T05:55:06.444Z,18.86
2022-08-11T05:57:51.643Z,19.64
2022-08-11T06:00:20.653Z,22.36
2022-08-11T06:03:01.518Z,22.89
2022-08-11T06:05:38.485Z,21.96
2022-08-11T06:08:14.214Z,21.21
2022-08-11T06:10:45.295Z,20.76
2022-08-11T06:13:17.918Z,20.46
2022-08-11T06:15:52.530Z,20.24
2022-08-11T06:18:21.366Z,20.07
2022-08-11T06:20:55.201Z,19.95
2022-08-11T06:23:26.332Z,19.83
2022-08-11T06:25:56.526Z,19.72
2022-08-11T06:28:37.752Z,19.63
2022-08-11T06:31:20.755Z,19.55
2022-08-11T06:33:51.695Z,19.48
2022-08-11T06:36:29.084Z,19.43
2022-08-11T06:39:06.372Z,19.38
2022-08-11T06:42:08.337Z,19.35
2022-08-11T06:45:33.958Z,19.33
2022-08-11T06:48:03.208Z,19.31
2022-08-11T06:50:51.913Z,19.32
2022-08-11T06:53:21.419Z,19.30
2022-08-11T06:56:09.253Z,19.30
2022-08-11T06:58:58.930Z,19.30
2022-08-11T07:01:52.061Z,19.30
2022-08-11T07:04:35.523Z,19.30
2022-08-11T07:07:47.524Z,19.30
2022-08-11T07:10:51.025Z,19.32
2022-08-11T07:13:45.088Z,19.35
2022-08-11T07:16:26.409Z,19.37
2022-08-11T07:19:20.374Z,19.41
2022-08-11T07:22:08.304Z,19.43
2022-08-11T07:25:07.403Z,19.46
2022-08-11T07:28:08.599Z,19.51
2022-08-11T07:30:41.844Z,19.56
2022-08-11T07:34:05.503Z,19.62
2022-08-11T07:36:02.284Z,19.67
2022-08-11T07:38:47.501Z,19.74
2022-08-11T07:41:20.826Z,19.81
2022-08-11T07:43:55.449Z,19.87
2022-08-11T07:46:43.190Z,19.95
2022-08-11T07:49:30.555Z,20.02
2022-08-11T07:52:17.726Z,20.11
2022-08-11T07:54:51.201Z,20.20
2022-08-11T07:58:13.609Z,20.29
2022-08-11T08:00:51.631Z,20.37
2022-08-11T08:03:39.509Z,20.44
2022-08-11T08:06:42.447Z,20.53
2022-08-11T08:09:31.153Z,20.61
2022-08-11T08:12:21.242Z,20.68
2022-08-11T08:15:14.198Z,20.75
2022-08-11T08:18:09.505Z,20.82
2022-08-11T08:20:50.382Z,20.88
2022-08-11T08:23:33.945Z,20.93
2022-08-11T08:26:16.624Z,21.00
2022-08-11T08:28:46.815Z,21.06
2022-08-11T08:31:16.048Z,21.12
2022-08-11T08:33:45.248Z,21.18
2022-08-11T08:36:15.672Z,21.25
2022-08-11T08:38:54.308Z,21.32
2022-08-11T08:41:29.967Z,21.40
2022-08-11T08:47:00.900Z,21.55
2022-08-11T08:49:40.293Z,21.60
2022-08-11T08:52:29.514Z,21.66
2022-08-11T08:55:06.176Z,21.71
2022-08-11T08:57:39.179Z,21.77
2022-08-11T09:00:12.452Z,21.85
2022-08-11T09:02:44.359Z,21.95
2022-08-11T09:05:13.133Z,22.04
2022-08-11T09:07:42.239Z,22.13
2022-08-11T09:10:11.781Z,22.20
2022-08-11T09:12:43.077Z,22.24
2022-08-11T09:15:13.007Z,22.27
2022-08-11T09:17:45.958Z,22.32
2022-08-11T09:20:27.577Z,22.40
2022-08-11T09:26:30.611Z,22.57
2022-08-11T09:29:00.847Z,22.64
2022-08-11T09:31:39.693Z,22.64
2022-08-11T09:34:14.231Z,22.62
2022-08-11T09:37:04.005Z,22.60
2022-08-11T09:39:56.578Z,22.61
2022-08-11T09:42:46.127Z,22.60
2022-08-11T09:45:15.630Z,22.57
2022-08-11T09:47:44.892Z,22.54
2022-08-11T09:50:16.721Z,22.51
2022-08-11T09:53:09.975Z,22.48
2022-08-11T09:55:36.546Z,22.45
2022-08-11T09:58:43.310Z,22.43
2022-08-11T10:01:05.659Z,22.45
2022-08-11T10:03:40.555Z,22.55
2022-08-11T10:06:32.843Z,22.72
2022-08-11T10:09:05.556Z,22.90
2022-08-11T10:11:36.904Z,23.09
2022-08-11T10:14:31.368Z,23.27
2022-08-11T10:17:08.581Z,23.35
2022-08-11T10:19:38.904Z,23.34
2022-08-11T10:22:27.713Z,23.35
2022-08-11T10:25:19.784Z,23.47
2022-08-11T10:28:28.224Z,23.67
2022-08-11T10:31:06.688Z,23.89
2022-08-11T10:33:57.668Z,24.12
2022-08-11T10:36:30.419Z,24.28
2022-08-11T10:39:01.057Z,24.35
2022-08-11T10:42:08.282Z,24.39
2022-08-11T10:44:47.984Z,24.33
2022-08-11T10:47:35.213Z,24.23
2022-08-11T10:50:32.406Z,24.11
2022-08-11T10:53:19.987Z,23.93
2022-08-11T10:56:07.735Z,23.67
2022-08-11T10:58:50.029Z,23.37
2022-08-11T11:01:23.001Z,23.10
2022-08-11T11:03:55.181Z,22.85
2022-08-11T11:06:30.064Z,22.59
2022-08-11T11:09:04.605Z,22.35
2022-08-11T11:12:00.152Z,22.12
2022-08-11T11:14:58.105Z,21.86
2022-08-11T11:18:01.808Z,21.59
2022-08-11T11:20:46.716Z,21.36
2022-08-11T11:23:23.674Z,21.19
2022-08-11T11:26:27.538Z,21.06
2022-08-11T11:29:30.015Z,20.88
2022-08-11T11:32:16.670Z,20.67
2022-08-11T11:35:21.811Z,20.51
2022-08-11T11:38:04.479Z,20.37
2022-08-11T11:40:34.247Z,20.25
2022-08-11T11:43:02.967Z,20.15
2022-08-11T11:45:32.558Z,20.04
2022-08-11T11:48:02.443Z,20.94
2022-08-11T11:50:36.388Z,23.33
2022-08-11T11:53:09.853Z,24.41
2022-08-11T11:55:38.625Z,23.60
2022-08-11T11:58:26.985Z,22.77
2022-08-11T12:01:15.640Z,22.18
2022-08-11T12:03:51.194Z,21.82
2022-08-11T12:06:26.416Z,21.61
2022-08-11T12:08:58.288Z,21.44
2022-08-11T12:11:46.941Z,21.33
2022-08-11T12:14:19.620Z,21.26
2022-08-11T12:16:49.235Z,21.23
2022-08-11T12:19:21.702Z,21.22
2022-08-11T12:22:10.154Z,21.24
2022-08-11T12:24:58.191Z,21.31
2022-08-11T12:27:28.413Z,21.43
2022-08-11T12:30:06.127Z,21.56
2022-08-11T12:32:37.299Z,21.69
2022-08-11T12:35:07.370Z,21.84
2022-08-11T12:37:42.511Z,22.00
2022-08-11T12:40:43.711Z,22.17
2022-08-11T12:43:56.566Z,22.39
2022-08-11T12:46:35.028Z,22.59
2022-08-11T12:49:43.252Z,22.76
2022-08-11T12:52:21.860Z,22.94
2022-08-11T12:54:59.154Z,23.09
2022-08-11T12:57:54.528Z,23.24
2022-08-11T13:00:43.502Z,23.40
2022-08-11T13:03:32.552Z,23.51
2022-08-11T13:06:04.212Z,23.60
2022-08-11T13:08:39.855Z,23.68
2022-08-11T13:11:55.871Z,23.75
2022-08-11T13:14:17.579Z,23.85
2022-08-11T13:17:05.921Z,23.91
2022-08-11T13:19:35.425Z,23.96
2022-08-11T13:22:05.355Z,24.00
2022-08-11T13:24:34.743Z,24.04
2022-08-11T13:27:03.671Z,24.09
2022-08-11T13:29:32.016Z,24.14
2022-08-11T13:32:00.703Z,24.20
2022-08-11T13:34:31.544Z,24.27
2022-08-11T13:37:05.669Z,24.32
2022-08-11T13:39:36.380Z,24.39
2022-08-11T13:42:05.956Z,24.45
2022-08-11T13:44:38.297Z,24.53
2022-08-11T13:47:09.004Z,24.55
2022-08-11T13:49:40.752Z,24.52
2022-08-11T13:52:16.936Z,24.47
2022-08-11T13:54:48.345Z,24.46
2022-08-11T13:58:18.289Z,24.48
2022-08-11T14:00:20.887Z,24.48
2022-08-11T14:02:58.409Z,24.53
2022-08-11T14:05:32.464Z,24.57
2022-08-11T14:08:04.143Z,24.60
2022-08-11T14:10:37.493Z,24.61
2022-08-11T14:13:41.209Z,24.59
2022-08-11T14:16:22.301Z,24.51
2022-08-11T14:18:56.004Z,24.42
2022-08-11T14:21:44.861Z,24.35
2022-08-11T14:24:16.618Z,24.27
2022-08-11T14:26:49.401Z,24.21
2022-08-11T14:29:21.691Z,24.13
2022-08-11T14:31:54.749Z,24.06
2022-08-11T14:34:26.469Z,23.98
2022-08-11T14:37:00.631Z,23.88
2022-08-11T14:39:36.334Z,23.71
2022-08-11T14:42:27.391Z,23.54
2022-08-11T14:45:18.300Z,23.39
2022-08-11T14:47:51.489Z,23.23
2022-08-11T14:50:24.240Z,23.11
2022-08-11T14:53:05.349Z,23.00
2022-08-11T14:56:16.533Z,22.92
2022-08-11T14:58:44.898Z,22.83
2022-08-11T15:01:32.131Z,22.76
2022-08-11T15:04:02.632Z,22.70
2022-08-11T15:06:49.114Z,22.64
2022-08-11T15:09:18.259Z,22.59
2022-08-11T15:12:05.481Z,22.54
2022-08-11T15:15:13.691Z,22.47
2022-08-11T15:17:44.162Z,22.39
2022-08-11T15:20:35.135Z,22.29
2022-08-11T15:23:23.782Z,22.18
2022-08-11T15:25:57.893Z,22.09
2022-08-11T15:28:47.112Z,22.02
2022-08-11T15:31:23.161Z,21.94
2022-08-11T15:34:12.898Z,21.84
2022-08-11T15:37:07.389Z,21.75
2022-08-11T15:40:06.387Z,21.66
2022-08-11T15:42:59.547Z,21.56
2022-08-11T15:45:49.429Z,21.50
2022-08-11T15:48:48.642Z,21.47
2022-08-11T15:51:40.552Z,21.44
2022-08-11T15:54:17.749Z,21.43
2022-08-11T15:56:50.528Z,21.42
2022-08-11T15:59:43.007Z,21.42
2022-08-11T16:02:34.188Z,21.48
2022-08-11T16:05:07.173Z,21.53
2022-08-11T16:07:40.499Z,21.58
2022-08-11T16:10:13.994Z,21.61
2022-08-11T16:13:06.324Z,21.65
2022-08-11T16:16:12.879Z,21.65
2022-08-11T16:18:58.869Z,21.61
2022-08-11T16:21:34.884Z,21.53
2022-08-11T16:25:58.230Z,21.42
2022-08-11T16:27:11.671Z,21.31
2022-08-11T16:29:48.198Z,21.20
2022-08-11T16:32:22.121Z,21.11
2022-08-11T16:35:19.768Z,21.02
2022-08-11T16:38:07.607Z,20.90
2022-08-11T16:40:36.083Z,20.82
2022-08-11T16:43:26.480Z,20.78
2022-08-11T16:46:15.643Z,20.70
2022-08-11T16:48:48.325Z,20.61
2022-08-11T16:51:21.052Z,21.09
2022-08-11T16:54:03.957Z,23.43
2022-08-11T16:56:46.022Z,24.74
2022-08-11T16:59:21.161Z,23.87
2022-08-11T17:01:53.618Z,22.99
2022-08-11T17:04:50.173Z,22.39
2022-08-11T17:07:41.622Z,21.91
2022-08-11T17:10:51.727Z,21.58
2022-08-11T17:13:28.432Z,22.16
2022-08-11T17:16:07.011Z,24.55
2022-08-11T17:18:43.717Z,25.36
2022-08-11T17:21:23.463Z,24.29
2022-08-11T17:23:59.314Z,23.28
2022-08-11T17:26:52.375Z,22.60
2022-08-11T17:29:24.954Z,22.02
2022-08-11T17:32:14.115Z,21.61
2022-08-11T17:35:05.969Z,21.98
2022-08-11T17:37:37.502Z,24.38
2022-08-11T17:40:11.358Z,24.70
2022-08-11T17:43:00.683Z,23.63
2022-08-11T17:46:01.516Z,22.63
2022-08-11T17:48:47.450Z,21.91
2022-08-11T17:51:38.646Z,22.01
2022-08-11T17:54:28.182Z,24.27
2022-08-11T17:57:20.872Z,24.95
2022-08-11T17:59:55.116Z,23.76
2022-08-11T18:02:54.326Z,22.85
2022-08-11T18:05:26.839Z,22.12
2022-08-11T18:08:17.381Z,21.64
2022-08-11T18:11:07.113Z,21.99
2022-08-11T18:13:59.019Z,24.26
2022-08-11T18:16:59.703Z,24.74
2022-08-11T18:19:58.014Z,23.44
2022-08-11T18:22:57.159Z,22.47
2022-08-11T18:25:50.163Z,21.80
2022-08-11T18:28:44.198Z,21.96
2022-08-11T18:31:34.593Z,24.26
2022-08-11T18:34:25.193Z,24.50
2022-08-11T18:37:24.736Z,23.14
2022-08-11T18:40:28.509Z,21.91
2022-08-11T18:43:20.346Z,21.06
2022-08-11T18:46:14.073Z,21.50
2022-08-11T18:49:13.112Z,23.78
2022-08-11T18:52:09.238Z,23.83
2022-08-11T18:54:59.222Z,22.44
2022-08-11T18:57:49.728Z,21.41
2022-08-11T19:00:45.608Z,20.66
2022-08-11T19:03:43.480Z,21.07
2022-08-11T19:06:40.949Z,23.51
2022-08-11T19:09:33.022Z,23.64
2022-08-11T19:12:20.742Z,22.31
2022-08-11T19:15:10.019Z,21.35
2022-08-11T19:18:03.118Z,20.76
2022-08-11T19:20:53.257Z,21.81
2022-08-11T19:23:48.772Z,23.95
2022-08-11T19:26:37.016Z,23.36
2022-08-11T19:30:12.635Z,22.12
2022-08-11T19:32:34.081Z,21.15
2022-08-11T19:35:22.644Z,20.50
2022-08-11T19:38:10.475Z,21.16
2022-08-11T19:40:58.619Z,23.50
2022-08-11T19:43:48.298Z,23.48
2022-08-11T19:46:38.997Z,22.11
2022-08-11T19:49:27.755Z,21.12
2022-08-11T19:52:16.158Z,21.19
2022-08-11T19:55:04.857Z,23.43
2022-08-11T19:57:55.459Z,23.62
2022-08-11T20:00:44.215Z,22.40
2022-08-11T20:03:32.867Z,21.47
2022-08-11T20:06:25.002Z,20.80
2022-08-11T20:09:19.184Z,21.12
2022-08-11T20:12:14.236Z,23.51
2022-08-11T20:15:04.482Z,23.22
2022-08-11T20:17:54.878Z,22.04
2022-08-11T20:20:45.478Z,21.18
2022-08-11T20:23:37.612Z,20.59
2022-08-11T20:26:31.124Z,21.63
2022-08-11T20:29:27.529Z,23.77
2022-08-11T20:32:21.203Z,23.12
2022-08-11T20:35:11.994Z,21.92
2022-08-11T20:38:00.133Z,21.13
2022-08-11T20:40:48.482Z,20.57
2022-08-11T20:44:05.607Z,20.94
2022-08-11T20:46:45.859Z,23.51
2022-08-11T20:49:45.233Z,23.39
2022-08-11T20:52:40.711Z,22.05
2022-08-11T20:55:52.271Z,21.17
2022-08-11T20:59:11.136Z,20.52
2022-08-11T21:04:55.176Z,23.69
2022-08-11T21:07:56.798Z,23.05
2022-08-11T21:13:59.549Z,20.76
2022-08-11T21:16:51.831Z,20.18
2022-08-11T21:19:59.984Z,20.70
2022-08-11T21:22:58.940Z,23.20
2022-08-11T21:26:07.630Z,22.81
2022-08-11T21:28:58.537Z,21.57
2022-08-11T21:31:49.062Z,20.76
2022-08-11T21:34:40.761Z,20.19
2022-08-11T21:37:31.068Z,20.60
2022-08-11T21:40:21.655Z,22.96
2022-08-11T21:43:10.717Z,23.30
2022-08-11T21:45:58.963Z,22.10
2022-08-11T21:48:48.740Z,21.16
2022-08-11T21:51:36.372Z,20.52
2022-08-11T21:54:30.659Z,20.04
2022-08-11T21:57:19.414Z,20.51
2022-08-11T22:00:11.958Z,22.82
2022-08-11T22:03:01.739Z,22.81
2022-08-11T22:05:53.362Z,21.63
2022-08-11T22:08:41.309Z,20.76
2022-08-11T22:11:32.269Z,20.17
2022-08-11T22:14:20.759Z,19.72
2022-08-11T22:17:07.467Z,20.19
2022-08-11T22:19:59.644Z,22.52
2022-08-11T22:22:52.971Z,22.76
2022-08-11T22:25:46.554Z,21.56
2022-08-11T22:28:39.184Z,20.63
2022-08-11T22:31:28.043Z,20.03
2022-08-11T22:34:15.082Z,20.28
2022-08-11T22:37:03.707Z,22.56
2022-08-11T22:40:02.666Z,23.00
2022-08-11T22:42:51.671Z,21.71
2022-08-11T22:45:40.023Z,20.78
2022-08-11T22:48:30.106Z,20.14
2022-08-11T22:51:19.478Z,19.66
2022-08-11T22:54:07.209Z,20.08
2022-08-11T22:56:54.941Z,22.42
2022-08-11T22:59:43.390Z,22.90
2022-08-11T23:02:30.825Z,21.67
2022-08-11T23:05:19.168Z,20.71
2022-08-11T23:08:06.588Z,20.04
2022-08-11T23:10:53.808Z,19.57
2022-08-11T23:13:42.260Z,19.90
2022-08-11T23:16:29.478Z,22.19
2022-08-11T23:20:00.279Z,22.37
2022-08-11T23:22:23.991Z,21.05
2022-08-11T23:25:30.668Z,20.08
2022-08-11T23:28:20.448Z,19.48
2022-08-11T23:31:10.173Z,19.76
2022-08-11T23:34:01.544Z,22.04
2022-08-11T23:36:48.457Z,22.23
2022-08-11T23:39:36.274Z,21.02
2022-08-11T23:42:24.111Z,20.10
2022-08-11T23:45:11.142Z,19.44
2022-08-11T23:47:58.774Z,18.93
2022-08-11T23:50:46.811Z,19.40
2022-08-11T23:53:34.543Z,21.77
2022-08-11T23:56:23.348Z,21.97
2022-08-11T23:59:11.135Z,20.77
